sensor_id;sensor_type;location;lat;lon;timestamp;temperature;humidity
21834;DHT22;11079;51.092;3.458;2024-01-30T03:34:02;11.00;99.90
21834;DHT22;11079;51.092;3.458;2024-01-30T05:51:12;11.30;99.90
21834;DHT22;11079;51.092;3.458;2024-01-30T07:16:08;11.50;99.90
21834;DHT22;11079;51.092;3.458;2024-01-30T07:18:34;11.50;99.90
21834;DHT22;11079;51.092;3.458;2024-01-30T07:21:00;11.50;99.90
21834;DHT22;11079;51.092;3.458;2024-01-30T07:23:25;11.60;99.90
21834;DHT22;11079;51.092;3.458;2024-01-30T07:25:51;11.60;99.90
21834;DHT22;11079;51.092;3.458;2024-01-30T07:28:19;11.50;99.90
21834;DHT22;11079;51.092;3.458;2024-01-30T07:30:45;11.50;99.90
21834;DHT22;11079;51.092;3.458;2024-01-30T07:33:10;11.70;99.90
21834;DHT22;11079;51.092;3.458;2024-01-30T07:35:36;11.60;99.90
21834;DHT22;11079;51.092;3.458;2024-01-30T07:38:02;11.70;99.90
21834;DHT22;11079;51.092;3.458;2024-01-30T07:40:28;11.70;99.90
21834;DHT22;11079;51.092;3.458;2024-01-30T07:42:56;11.60;99.90
21834;DHT22;11079;51.092;3.458;2024-01-30T07:45:25;11.70;99.90
21834;DHT22;11079;51.092;3.458;2024-01-30T07:47:53;11.70;99.90
21834;DHT22;11079;51.092;3.458;2024-01-30T07:50:18;11.60;99.90
21834;DHT22;11079;51.092;3.458;2024-01-30T07:52:44;11.70;99.90
21834;DHT22;11079;51.092;3.458;2024-01-30T07:55:10;11.70;99.90
21834;DHT22;11079;51.092;3.458;2024-01-30T07:57:38;11.70;99.90
21834;DHT22;11079;51.092;3.458;2024-01-30T08:00:05;11.70;99.90
21834;DHT22;11079;51.092;3.458;2024-01-30T08:02:32;11.70;99.90
21834;DHT22;11079;51.092;3.458;2024-01-30T08:04:58;11.70;99.90
21834;DHT22;11079;51.092;3.458;2024-01-30T08:07:24;11.60;99.90
21834;DHT22;11079;51.092;3.458;2024-01-30T08:09:51;11.70;99.90
21834;DHT22;11079;51.092;3.458;2024-01-30T08:12:16;11.70;99.90
21834;DHT22;11079;51.092;3.458;2024-01-30T08:14:42;11.80;99.90
21834;DHT22;11079;51.092;3.458;2024-01-30T08:17:08;11.90;99.90
21834;DHT22;11079;51.092;3.458;2024-01-30T08:19:34;11.80;99.90
21834;DHT22;11079;51.092;3.458;2024-01-30T08:21:59;12.00;99.90
21834;DHT22;11079;51.092;3.458;2024-01-30T08:24:25;11.90;99.90
21834;DHT22;11079;51.092;3.458;2024-01-30T08:26:51;11.90;99.90
21834;DHT22;11079;51.092;3.458;2024-01-30T08:29:16;11.90;99.90
21834;DHT22;11079;51.092;3.458;2024-01-30T08:31:42;12.00;99.90
21834;DHT22;11079;51.092;3.458;2024-01-30T08:34:08;12.00;99.90
21834;DHT22;11079;51.092;3.458;2024-01-30T08:36:33;12.00;99.90
21834;DHT22;11079;51.092;3.458;2024-01-30T08:38:59;11.90;99.90
21834;DHT22;11079;51.092;3.458;2024-01-30T08:41:25;11.90;99.90
21834;DHT22;11079;51.092;3.458;2024-01-30T08:43:52;11.90;99.90
21834;DHT22;11079;51.092;3.458;2024-01-30T08:46:18;11.80;99.90
21834;DHT22;11079;51.092;3.458;2024-01-30T08:48:44;11.90;99.90
21834;DHT22;11079;51.092;3.458;2024-01-30T08:51:10;12.00;99.90
21834;DHT22;11079;51.092;3.458;2024-01-30T08:53:36;12.10;99.90
21834;DHT22;11079;51.092;3.458;2024-01-30T08:56:03;12.00;99.90
21834;DHT22;11079;51.092;3.458;2024-01-30T08:58:28;11.80;99.90
21834;DHT22;11079;51.092;3.458;2024-01-30T09:00:54;11.90;99.90
21834;DHT22;11079;51.092;3.458;2024-01-30T09:03:20;12.00;99.90
21834;DHT22;11079;51.092;3.458;2024-01-30T09:05:45;12.00;99.90
21834;DHT22;11079;51.092;3.458;2024-01-30T09:08:12;12.00;99.90
21834;DHT22;11079;51.092;3.458;2024-01-30T09:10:38;11.90;99.90
21834;DHT22;11079;51.092;3.458;2024-01-30T09:13:03;11.90;99.90
21834;DHT22;11079;51.092;3.458;2024-01-30T09:15:29;11.90;99.90
21834;DHT22;11079;51.092;3.458;2024-01-30T09:17:55;11.90;99.90
21834;DHT22;11079;51.092;3.458;2024-01-30T09:20:20;11.90;99.90
21834;DHT22;11079;51.092;3.458;2024-01-30T09:22:51;11.80;99.90
21834;DHT22;11079;51.092;3.458;2024-01-30T09:25:18;11.90;99.90
21834;DHT22;11079;51.092;3.458;2024-01-30T09:27:44;11.80;99.90
21834;DHT22;11079;51.092;3.458;2024-01-30T09:30:10;11.80;99.90
21834;DHT22;11079;51.092;3.458;2024-01-30T09:32:36;11.60;99.90
21834;DHT22;11079;51.092;3.458;2024-01-30T09:35:01;11.40;99.90
21834;DHT22;11079;51.092;3.458;2024-01-30T09:37:34;11.40;99.90
21834;DHT22;11079;51.092;3.458;2024-01-30T09:40:20;11.30;99.90
21834;DHT22;11079;51.092;3.458;2024-01-30T09:42:47;11.40;99.90
21834;DHT22;11079;51.092;3.458;2024-01-30T09:45:21;11.40;99.90
21834;DHT22;11079;51.092;3.458;2024-01-30T09:47:52;11.20;99.90
21834;DHT22;11079;51.092;3.458;2024-01-30T09:50:41;11.20;99.90
21834;DHT22;11079;51.092;3.458;2024-01-30T09:53:13;11.10;99.90
21834;DHT22;11079;51.092;3.458;2024-01-30T09:55:55;11.20;99.90
21834;DHT22;11079;51.092;3.458;2024-01-30T09:58:32;11.40;99.90
21834;DHT22;11079;51.092;3.458;2024-01-30T10:01:08;11.40;99.90
21834;DHT22;11079;51.092;3.458;2024-01-30T10:03:40;11.70;99.90
21834;DHT22;11079;51.092;3.458;2024-01-30T10:06:06;11.80;99.90
21834;DHT22;11079;51.092;3.458;2024-01-30T10:08:46;11.90;99.90
21834;DHT22;11079;51.092;3.458;2024-01-30T10:11:11;11.90;99.90
21834;DHT22;11079;51.092;3.458;2024-01-30T10:13:38;11.80;99.90
21834;DHT22;11079;51.092;3.458;2024-01-30T10:16:04;11.80;99.90
21834;DHT22;11079;51.092;3.458;2024-01-30T10:18:32;11.70;99.90
21834;DHT22;11079;51.092;3.458;2024-01-30T10:20:59;11.60;99.90
21834;DHT22;11079;51.092;3.458;2024-01-30T10:23:24;11.70;99.90
21834;DHT22;11079;51.092;3.458;2024-01-30T10:25:54;12.10;99.90
21834;DHT22;11079;51.092;3.458;2024-01-30T10:28:19;12.30;99.90
21834;DHT22;11079;51.092;3.458;2024-01-30T10:30:47;12.30;99.90
21834;DHT22;11079;51.092;3.458;2024-01-30T10:33:22;12.40;99.90
21834;DHT22;11079;51.092;3.458;2024-01-30T10:35:49;12.70;99.90
21834;DHT22;11079;51.092;3.458;2024-01-30T10:38:18;12.90;99.90
21834;DHT22;11079;51.092;3.458;2024-01-30T10:40:45;13.00;99.90
21834;DHT22;11079;51.092;3.458;2024-01-30T10:43:14;13.00;99.90
21834;DHT22;11079;51.092;3.458;2024-01-30T10:45:44;12.60;99.90
21834;DHT22;11079;51.092;3.458;2024-01-30T10:48:14;12.40;99.90
21834;DHT22;11079;51.092;3.458;2024-01-30T10:50:42;12.40;99.90
21834;DHT22;11079;51.092;3.458;2024-01-30T10:53:09;12.20;99.90
21834;DHT22;11079;51.092;3.458;2024-01-30T10:55:36;12.10;99.90
21834;DHT22;11079;51.092;3.458;2024-01-30T10:58:03;12.10;99.90
21834;DHT22;11079;51.092;3.458;2024-01-30T11:00:29;12.00;99.90
21834;DHT22;11079;51.092;3.458;2024-01-30T11:02:55;12.00;99.90
21834;DHT22;11079;51.092;3.458;2024-01-30T11:05:24;11.80;99.90
21834;DHT22;11079;51.092;3.458;2024-01-30T11:07:53;11.70;99.90
21834;DHT22;11079;51.092;3.458;2024-01-30T11:10:19;11.60;99.90
21834;DHT22;11079;51.092;3.458;2024-01-30T11:12:46;11.50;99.90
21834;DHT22;11079;51.092;3.458;2024-01-30T11:15:18;11.60;99.90
21834;DHT22;11079;51.092;3.458;2024-01-30T11:20:50;11.40;99.90
21834;DHT22;11079;51.092;3.458;2024-01-30T11:23:32;11.30;99.90
21834;DHT22;11079;51.092;3.458;2024-01-30T11:26:01;11.50;99.90
21834;DHT22;11079;51.092;3.458;2024-01-30T11:28:44;11.60;99.90
21834;DHT22;11079;51.092;3.458;2024-01-30T11:31:59;11.40;99.90
21834;DHT22;11079;51.092;3.458;2024-01-30T11:34:35;11.20;99.90
21834;DHT22;11079;51.092;3.458;2024-01-30T11:37:14;11.20;99.90
21834;DHT22;11079;51.092;3.458;2024-01-30T11:39:44;11.00;99.90
21834;DHT22;11079;51.092;3.458;2024-01-30T11:42:10;11.00;99.90
21834;DHT22;11079;51.092;3.458;2024-01-30T11:44:36;10.90;99.90
21834;DHT22;11079;51.092;3.458;2024-01-30T11:47:02;11.10;99.90
21834;DHT22;11079;51.092;3.458;2024-01-30T11:49:29;11.10;99.90
21834;DHT22;11079;51.092;3.458;2024-01-30T11:51:54;11.10;99.90
21834;DHT22;11079;51.092;3.458;2024-01-30T11:54:20;11.10;99.90
21834;DHT22;11079;51.092;3.458;2024-01-30T11:56:46;10.90;99.90
21834;DHT22;11079;51.092;3.458;2024-01-30T11:59:12;10.80;99.90
21834;DHT22;11079;51.092;3.458;2024-01-30T12:01:37;10.70;99.90
21834;DHT22;11079;51.092;3.458;2024-01-30T12:04:03;10.80;99.90
21834;DHT22;11079;51.092;3.458;2024-01-30T12:06:34;10.80;99.90
21834;DHT22;11079;51.092;3.458;2024-01-30T12:09:02;10.80;99.90
21834;DHT22;11079;51.092;3.458;2024-01-30T12:11:48;10.70;99.90
21834;DHT22;11079;51.092;3.458;2024-01-30T12:14:14;10.70;99.90
21834;DHT22;11079;51.092;3.458;2024-01-30T12:16:40;10.60;99.90
21834;DHT22;11079;51.092;3.458;2024-01-30T12:19:07;10.70;99.90
21834;DHT22;11079;51.092;3.458;2024-01-30T12:21:33;10.80;99.90
21834;DHT22;11079;51.092;3.458;2024-01-30T12:24:00;10.70;99.90
21834;DHT22;11079;51.092;3.458;2024-01-30T12:26:26;10.80;99.90
21834;DHT22;11079;51.092;3.458;2024-01-30T12:28:55;10.80;99.90
21834;DHT22;11079;51.092;3.458;2024-01-30T12:31:29;10.70;99.90
21834;DHT22;11079;51.092;3.458;2024-01-30T12:34:01;10.80;99.90
21834;DHT22;11079;51.092;3.458;2024-01-30T12:36:29;10.70;99.90
21834;DHT22;11079;51.092;3.458;2024-01-30T12:38:59;10.70;99.90
21834;DHT22;11079;51.092;3.458;2024-01-30T12:41:26;10.60;99.90
21834;DHT22;11079;51.092;3.458;2024-01-30T12:43:54;10.60;99.90
21834;DHT22;11079;51.092;3.458;2024-01-30T12:46:20;10.50;99.90
21834;DHT22;11079;51.092;3.458;2024-01-30T12:48:45;10.60;99.90
21834;DHT22;11079;51.092;3.458;2024-01-30T12:51:11;10.50;99.90
21834;DHT22;11079;51.092;3.458;2024-01-30T12:53:37;10.40;99.90
21834;DHT22;11079;51.092;3.458;2024-01-30T12:56:03;10.50;99.90
21834;DHT22;11079;51.092;3.458;2024-01-30T12:58:28;10.50;99.90
21834;DHT22;11079;51.092;3.458;2024-01-30T13:00:54;10.50;99.90
21834;DHT22;11079;51.092;3.458;2024-01-30T13:03:20;10.60;99.90
21834;DHT22;11079;51.092;3.458;2024-01-30T13:05:46;10.40;99.90
21834;DHT22;11079;51.092;3.458;2024-01-30T13:08:11;10.50;99.90
21834;DHT22;11079;51.092;3.458;2024-01-30T13:10:37;10.50;99.90
21834;DHT22;11079;51.092;3.458;2024-01-30T13:13:03;10.50;99.90
21834;DHT22;11079;51.092;3.458;2024-01-30T13:15:28;10.50;99.90
21834;DHT22;11079;51.092;3.458;2024-01-30T13:17:54;10.60;99.90
21834;DHT22;11079;51.092;3.458;2024-01-30T13:20:20;10.50;99.90
21834;DHT22;11079;51.092;3.458;2024-01-30T13:22:49;10.40;99.90
21834;DHT22;11079;51.092;3.458;2024-01-30T13:25:15;10.40;99.90
21834;DHT22;11079;51.092;3.458;2024-01-30T13:27:41;10.50;99.90
21834;DHT22;11079;51.092;3.458;2024-01-30T13:30:07;10.50;99.90
21834;DHT22;11079;51.092;3.458;2024-01-30T13:32:35;10.40;99.90
21834;DHT22;11079;51.092;3.458;2024-01-30T13:35:00;10.50;99.90
21834;DHT22;11079;51.092;3.458;2024-01-30T13:37:26;10.40;99.90
21834;DHT22;11079;51.092;3.458;2024-01-30T13:39:52;10.50;99.90
21834;DHT22;11079;51.092;3.458;2024-01-30T13:42:17;10.40;99.90
21834;DHT22;11079;51.092;3.458;2024-01-30T13:44:44;10.40;99.90
21834;DHT22;11079;51.092;3.458;2024-01-30T13:47:10;10.30;99.90
21834;DHT22;11079;51.092;3.458;2024-01-30T13:49:36;10.20;99.90
21834;DHT22;11079;51.092;3.458;2024-01-30T13:52:02;10.20;99.90
21834;DHT22;11079;51.092;3.458;2024-01-30T13:54:31;10.10;99.90
21834;DHT22;11079;51.092;3.458;2024-01-30T13:56:57;10.20;99.90
21834;DHT22;11079;51.092;3.458;2024-01-30T13:59:23;10.30;99.90
21834;DHT22;11079;51.092;3.458;2024-01-30T14:01:51;10.40;99.90
21834;DHT22;11079;51.092;3.458;2024-01-30T14:04:17;10.20;99.90
21834;DHT22;11079;51.092;3.458;2024-01-30T14:06:42;10.20;99.90
21834;DHT22;11079;51.092;3.458;2024-01-30T14:09:08;10.30;99.90
21834;DHT22;11079;51.092;3.458;2024-01-30T14:11:36;10.20;99.90
21834;DHT22;11079;51.092;3.458;2024-01-30T14:14:02;10.20;99.90
21834;DHT22;11079;51.092;3.458;2024-01-30T14:16:27;10.20;99.90
21834;DHT22;11079;51.092;3.458;2024-01-30T14:18:54;10.20;99.90
21834;DHT22;11079;51.092;3.458;2024-01-30T14:21:19;10.20;99.90
21834;DHT22;11079;51.092;3.458;2024-01-30T14:23:45;10.40;99.90
21834;DHT22;11079;51.092;3.458;2024-01-30T14:26:13;10.40;99.90
21834;DHT22;11079;51.092;3.458;2024-01-30T14:28:38;10.30;99.90
21834;DHT22;11079;51.092;3.458;2024-01-30T14:31:04;10.40;99.90
21834;DHT22;11079;51.092;3.458;2024-01-30T14:33:31;10.50;99.90
21834;DHT22;11079;51.092;3.458;2024-01-30T14:35:57;10.40;99.90
21834;DHT22;11079;51.092;3.458;2024-01-30T14:38:24;10.20;99.90
21834;DHT22;11079;51.092;3.458;2024-01-30T14:40:53;10.10;99.90
21834;DHT22;11079;51.092;3.458;2024-01-30T14:43:19;10.00;99.90
21834;DHT22;11079;51.092;3.458;2024-01-30T14:45:45;9.90;99.90
21834;DHT22;11079;51.092;3.458;2024-01-30T14:48:13;10.00;99.90
21834;DHT22;11079;51.092;3.458;2024-01-30T14:50:39;9.90;99.90
21834;DHT22;11079;51.092;3.458;2024-01-30T14:53:04;9.80;99.90
21834;DHT22;11079;51.092;3.458;2024-01-30T14:55:30;9.90;99.90
21834;DHT22;11079;51.092;3.458;2024-01-30T14:57:56;9.80;99.90
21834;DHT22;11079;51.092;3.458;2024-01-30T15:00:22;9.80;99.90
21834;DHT22;11079;51.092;3.458;2024-01-30T15:02:47;9.80;99.90
21834;DHT22;11079;51.092;3.458;2024-01-30T15:05:16;9.90;99.90
21834;DHT22;11079;51.092;3.458;2024-01-30T15:07:42;9.80;99.90
21834;DHT22;11079;51.092;3.458;2024-01-30T15:10:08;9.90;99.90
21834;DHT22;11079;51.092;3.458;2024-01-30T15:12:35;10.00;99.90
21834;DHT22;11079;51.092;3.458;2024-01-30T15:15:02;10.10;99.90
21834;DHT22;11079;51.092;3.458;2024-01-30T15:17:28;10.10;99.90
21834;DHT22;11079;51.092;3.458;2024-01-30T15:19:54;10.00;99.90
21834;DHT22;11079;51.092;3.458;2024-01-30T15:22:23;10.00;99.90
21834;DHT22;11079;51.092;3.458;2024-01-30T15:24:49;9.70;99.90
21834;DHT22;11079;51.092;3.458;2024-01-30T15:27:14;9.70;99.90
21834;DHT22;11079;51.092;3.458;2024-01-30T15:29:40;9.70;99.90
21834;DHT22;11079;51.092;3.458;2024-01-30T15:32:06;9.80;99.90
21834;DHT22;11079;51.092;3.458;2024-01-30T15:34:31;9.70;99.90
21834;DHT22;11079;51.092;3.458;2024-01-30T15:36:57;9.70;99.90
21834;DHT22;11079;51.092;3.458;2024-01-30T15:39:23;9.70;99.90
21834;DHT22;11079;51.092;3.458;2024-01-30T15:41:49;9.70;99.90
21834;DHT22;11079;51.092;3.458;2024-01-30T15:44:15;9.80;99.90
21834;DHT22;11079;51.092;3.458;2024-01-30T15:46:40;9.70;99.90
21834;DHT22;11079;51.092;3.458;2024-01-30T15:49:06;9.50;99.90
21834;DHT22;11079;51.092;3.458;2024-01-30T15:51:32;9.50;99.90
21834;DHT22;11079;51.092;3.458;2024-01-30T15:53:58;9.40;99.90
21834;DHT22;11079;51.092;3.458;2024-01-30T15:56:23;9.50;99.90
21834;DHT22;11079;51.092;3.458;2024-01-30T15:58:52;9.50;99.90
21834;DHT22;11079;51.092;3.458;2024-01-30T16:01:18;9.40;99.90
21834;DHT22;11079;51.092;3.458;2024-01-30T16:03:44;9.30;99.90
21834;DHT22;11079;51.092;3.458;2024-01-30T16:06:13;9.30;99.90
21834;DHT22;11079;51.092;3.458;2024-01-30T16:08:40;9.20;99.90
21834;DHT22;11079;51.092;3.458;2024-01-30T16:11:08;9.20;99.90
21834;DHT22;11079;51.092;3.458;2024-01-30T16:13:34;9.10;99.90
21834;DHT22;11079;51.092;3.458;2024-01-30T16:16:04;9.10;99.90
21834;DHT22;11079;51.092;3.458;2024-01-30T16:18:31;9.20;99.90
21834;DHT22;11079;51.092;3.458;2024-01-30T16:20:57;9.30;99.90
21834;DHT22;11079;51.092;3.458;2024-01-30T16:23:23;9.20;99.90
21834;DHT22;11079;51.092;3.458;2024-01-30T16:25:48;9.20;99.90
21834;DHT22;11079;51.092;3.458;2024-01-30T16:28:14;9.10;99.90
21834;DHT22;11079;51.092;3.458;2024-01-30T16:30:40;9.10;99.90
21834;DHT22;11079;51.092;3.458;2024-01-30T16:33:06;9.10;99.90
21834;DHT22;11079;51.092;3.458;2024-01-30T16:35:32;9.10;99.90
21834;DHT22;11079;51.092;3.458;2024-01-30T16:37:58;9.10;99.90
21834;DHT22;11079;51.092;3.458;2024-01-30T16:40:23;9.00;99.90
21834;DHT22;11079;51.092;3.458;2024-01-30T16:42:49;9.00;99.90
21834;DHT22;11079;51.092;3.458;2024-01-30T16:45:15;9.10;99.90
21834;DHT22;11079;51.092;3.458;2024-01-30T16:47:40;9.10;99.90
21834;DHT22;11079;51.092;3.458;2024-01-30T16:50:08;9.10;99.90
21834;DHT22;11079;51.092;3.458;2024-01-30T16:52:34;9.20;99.90
21834;DHT22;11079;51.092;3.458;2024-01-30T16:55:00;9.20;99.90
21834;DHT22;11079;51.092;3.458;2024-01-30T16:57:25;9.10;99.90
21834;DHT22;11079;51.092;3.458;2024-01-30T16:59:51;9.20;99.90
21834;DHT22;11079;51.092;3.458;2024-01-30T17:02:17;9.10;99.90
21834;DHT22;11079;51.092;3.458;2024-01-30T17:04:42;9.10;99.90
21834;DHT22;11079;51.092;3.458;2024-01-30T17:07:09;8.90;99.90
21834;DHT22;11079;51.092;3.458;2024-01-30T17:09:38;8.80;99.90
21834;DHT22;11079;51.092;3.458;2024-01-30T17:12:22;8.90;99.90
21834;DHT22;11079;51.092;3.458;2024-01-30T17:18:36;9.00;99.90
21834;DHT22;11079;51.092;3.458;2024-01-30T17:28:22;9.10;99.90
21834;DHT22;11079;51.092;3.458;2024-01-30T17:30:53;9.00;99.90
21834;DHT22;11079;51.092;3.458;2024-01-30T17:44:12;9.10;99.90
21834;DHT22;11079;51.092;3.458;2024-01-30T17:47:01;9.10;99.90
21834;DHT22;11079;51.092;3.458;2024-01-30T17:49:59;9.10;99.90
21834;DHT22;11079;51.092;3.458;2024-01-30T17:55:32;9.20;99.90
21834;DHT22;11079;51.092;3.458;2024-01-30T19:23:28;9.30;99.90
21834;DHT22;11079;51.092;3.458;2024-01-30T19:48:31;9.60;99.90
21834;DHT22;11079;51.092;3.458;2024-01-30T19:51:26;9.30;99.90
21834;DHT22;11079;51.092;3.458;2024-01-30T21:14:15;9.40;99.90
21834;DHT22;11079;51.092;3.458;2024-01-30T22:03:44;9.70;99.90
21834;DHT22;11079;51.092;3.458;2024-01-30T22:06:14;9.70;99.90
21834;DHT22;11079;51.092;3.458;2024-01-30T22:09:49;9.90;99.90
21834;DHT22;11079;51.092;3.458;2024-01-30T22:12:16;9.60;99.90
21834;DHT22;11079;51.092;3.458;2024-01-30T22:14:42;9.40;99.90
21834;DHT22;11079;51.092;3.458;2024-01-30T22:20:34;9.60;99.90
21834;DHT22;11079;51.092;3.458;2024-01-30T22:23:21;9.70;99.90
21834;DHT22;11079;51.092;3.458;2024-01-30T22:26:17;9.80;99.90
21834;DHT22;11079;51.092;3.458;2024-01-30T22:29:26;9.90;99.90
21834;DHT22;11079;51.092;3.458;2024-01-30T22:32:18;9.90;99.90
21834;DHT22;11079;51.092;3.458;2024-01-30T22:37:24;9.60;99.90
21834;DHT22;11079;51.092;3.458;2024-01-30T22:39:55;9.70;99.90
21834;DHT22;11079;51.092;3.458;2024-01-30T22:42:44;9.70;99.90
21834;DHT22;11079;51.092;3.458;2024-01-30T22:47:48;9.60;99.90
21834;DHT22;11079;51.092;3.458;2024-01-30T22:50:36;9.60;99.90
21834;DHT22;11079;51.092;3.458;2024-01-30T22:53:52;9.60;99.90
21834;DHT22;11079;51.092;3.458;2024-01-30T23:00:00;9.50;99.90
21834;DHT22;11079;51.092;3.458;2024-01-30T23:23:39;9.40;99.90
21834;DHT22;11079;51.092;3.458;2024-01-30T23:26:39;9.50;99.90
21834;DHT22;11079;51.092;3.458;2024-01-30T23:29:44;9.30;99.90
21834;DHT22;11079;51.092;3.458;2024-01-30T23:32:36;9.30;99.90
21834;DHT22;11079;51.092;3.458;2024-01-30T23:35:55;9.20;99.90
21834;DHT22;11079;51.092;3.458;2024-01-30T23:42:09;9.00;99.90
21834;DHT22;11079;51.092;3.458;2024-01-30T23:50:21;9.00;99.90
21834;DHT22;11079;51.092;3.458;2024-01-30T23:53:08;9.10;99.90
21834;DHT22;11079;51.092;3.458;2024-01-30T23:59:40;9.30;99.90
